Time;durP1;ratioP1;P1;durP2;ratioP2;P2;SDS_P1;SDS_P2;PMS_P1;PMS_P2;Temp;Humidity;BMP_temperature;BMP_pressure;BME280_temperature;BME280_humidity;BME280_pressure;Samples;Min_cycle;Max_cycle;Signal;HPM_P1;HPM_P2
2022/11/10 00:00:00;;;;;;;0.20;0.10;;;;;;;;;;5076566;28;20059;-85
2022/11/10 00:02:34;;;;;;;0.30;0.20;;;;;;;;;;5077518;28;20047;-86
2022/11/10 00:08:18;;;;;;;0.20;0.10;;;;;;;;;;5062183;28;20601;-85
2022/11/10 00:11:00;;;;;;;0.63;0.63;;;;;;;;;;5038249;28;20075;-89
2022/11/10 00:19:23;;;;;;;0.20;0.10;;;;;;;;;;5073434;28;20198;-88
2022/11/10 00:21:52;;;;;;;0.20;0.10;;;;;;;;;;5076905;28;20611;-86
2022/11/10 00:24:21;;;;;;;0.20;0.10;;;;;;;;;;5060305;28;20131;-85
2022/11/10 00:26:52;;;;;;;1.00;0.57;;;;;;;;;;5058740;28;20040;-86
2022/11/10 00:29:22;;;;;;;0.20;0.10;;;;;;;;;;5042049;28;20032;-87
2022/11/10 00:31:50;;;;;;;0.20;0.10;;;;;;;;;;5070980;28;20044;-83
2022/11/10 00:34:16;;;;;;;0.20;0.10;;;;;;;;;;5077017;28;20579;-87
2022/11/10 00:36:48;;;;;;;0.20;0.10;;;;;;;;;;5066329;28;20077;-85
2022/11/10 00:39:14;;;;;;;0.20;0.10;;;;;;;;;;5080055;28;20330;-87
2022/11/10 00:42:24;;;;;;;0.20;0.10;;;;;;;;;;5064351;28;21040;-89
2022/11/10 00:44:59;;;;;;;0.20;0.10;;;;;;;;;;5042479;28;20096;-85
2022/11/10 00:50:32;;;;;;;0.20;0.10;;;;;;;;;;5076370;28;20044;-86
2022/11/10 00:53:14;;;;;;;0.20;0.10;;;;;;;;;;5050508;28;20378;-84
2022/11/10 00:55:49;;;;;;;0.20;0.10;;;;;;;;;;5043400;28;20063;-84
2022/11/10 00:58:21;;;;;;;0.20;0.10;;;;;;;;;;5025653;28;20040;-87
2022/11/10 01:01:08;;;;;;;0.20;0.10;;;;;;;;;;5040032;28;20151;-88
2022/11/10 01:03:42;;;;;;;0.20;0.10;;;;;;;;;;5029739;28;20094;-86
2022/11/10 01:06:17;;;;;;;1.55;0.47;;;;;;;;;;5002057;28;20379;-85
2022/11/10 01:08:44;;;;;;;0.20;0.10;;;;;;;;;;4983536;28;20088;-89
2022/11/10 01:11:17;;;;;;;0.20;0.10;;;;;;;;;;5000152;28;20045;-85
2022/11/10 01:13:44;;;;;;;0.20;0.10;;;;;;;;;;4962105;28;20081;-84
2022/11/10 01:16:23;;;;;;;0.20;0.10;;;;;;;;;;4958005;28;20422;-88
2022/11/10 01:19:05;;;;;;;0.20;0.10;;;;;;;;;;4998480;28;20124;-86
2022/11/10 01:21:31;;;;;;;0.20;0.10;;;;;;;;;;4978942;28;20093;-88
2022/11/10 01:24:16;;;;;;;;;;;;;;;;;;;;;
2022/11/10 01:26:45;;;;;;;0.20;0.10;;;;;;;;;;5000040;28;20645;-83
2022/11/10 01:29:11;;;;;;;0.20;0.10;;;;;;;;;;5020345;28;20036;-84
2022/11/10 01:31:43;;;;;;;0.20;0.10;;;;;;;;;;5017620;28;20045;-92
2022/11/10 01:34:12;;;;;;;8.35;1.58;;;;;;;;;;5002014;28;20536;-84
2022/11/10 01:36:47;;;;;;;0.20;0.10;;;;;;;;;;5011873;28;20056;-87
2022/11/10 01:39:18;;;;;;;0.20;0.10;;;;;;;;;;5044443;28;20097;-86
2022/11/10 01:41:52;;;;;;;0.20;0.10;;;;;;;;;;5047961;28;20052;-86
2022/11/10 01:44:35;;;;;;;0.20;0.00;;;;;;;;;;5042234;28;20220;-87
2022/11/10 01:47:07;;;;;;;0.20;0.10;;;;;;;;;;5048241;28;20048;-86
2022/11/10 01:49:36;;;;;;;0.20;0.10;;;;;;;;;;5056963;28;20489;-85
2022/11/10 01:52:13;;;;;;;0.20;0.10;;;;;;;;;;5074672;28;20518;-88
2022/11/10 01:54:44;;;;;;;0.20;0.03;;;;;;;;;;5042934;28;20123;-88
2022/11/10 01:57:12;;;;;;;0.20;0.10;;;;;;;;;;5057519;28;20072;-89
2022/11/10 01:59:42;;;;;;;0.20;0.10;;;;;;;;;;5058179;28;20043;-84
2022/11/10 02:02:21;;;;;;;0.20;0.10;;;;;;;;;;5066431;28;20048;-86
2022/11/10 02:04:51;;;;;;;0.20;0.10;;;;;;;;;;5063427;28;20036;-87
2022/11/10 02:07:36;;;;;;;0.20;0.10;;;;;;;;;;5074588;28;20039;-85
2022/11/10 02:10:08;;;;;;;0.20;0.10;;;;;;;;;;5061458;28;20044;-84
2022/11/10 02:12:48;;;;;;;0.20;0.10;;;;;;;;;;5076847;28;20147;-84
2022/11/10 02:15:15;;;;;;;0.20;0.10;;;;;;;;;;5060164;28;20039;-88
2022/11/10 02:17:41;;;;;;;0.20;0.10;;;;;;;;;;5063970;28;20459;-86
2022/11/10 02:20:09;;;;;;;0.20;0.10;;;;;;;;;;5062300;28;20056;-88
2022/11/10 02:22:42;;;;;;;0.30;0.20;;;;;;;;;;5060548;28;20070;-86
2022/11/10 02:25:28;;;;;;;0.20;0.10;;;;;;;;;;5061497;28;20085;-85
2022/11/10 02:27:59;;;;;;;0.20;0.10;;;;;;;;;;5059903;28;20032;-85
2022/11/10 02:30:28;;;;;;;1.15;0.57;;;;;;;;;;5058369;28;20482;-84
2022/11/10 02:33:03;;;;;;;0.20;0.10;;;;;;;;;;5061834;28;20350;-85
2022/11/10 02:35:32;;;;;;;0.20;0.10;;;;;;;;;;5060422;28;20043;-86
2022/11/10 02:38:01;;;;;;;0.20;0.10;;;;;;;;;;5063482;28;20047;-86
2022/11/10 02:40:30;;;;;;;0.20;0.10;;;;;;;;;;5076912;28;20036;-89
2022/11/10 02:43:11;;;;;;;0.20;0.10;;;;;;;;;;5077137;28;20335;-90
2022/11/10 02:46:00;;;;;;;0.20;0.10;;;;;;;;;;5095509;28;20040;-88
2022/11/10 02:48:29;;;;;;;0.20;0.10;;;;;;;;;;5079087;28;20043;-85
2022/11/10 02:51:16;;;;;;;0.20;0.13;;;;;;;;;;5059953;28;20403;-92
2022/11/10 02:53:51;;;;;;;0.20;0.10;;;;;;;;;;5063070;28;20071;-89
2022/11/10 02:56:31;;;;;;;0.20;0.10;;;;;;;;;;5046933;28;20148;-85
2022/11/10 02:59:06;;;;;;;0.20;0.10;;;;;;;;;;5060120;28;20054;-88
2022/11/10 03:01:38;;;;;;;0.20;0.10;;;;;;;;;;5078564;28;20402;-85
2022/11/10 03:04:10;;;;;;;0.20;0.10;;;;;;;;;;5064323;28;20822;-85
2022/11/10 03:06:36;;;;;;;0.20;0.10;;;;;;;;;;5060299;28;20036;-87
2022/11/10 03:09:03;;;;;;;0.20;0.00;;;;;;;;;;5075920;28;20127;-87
2022/11/10 03:11:29;;;;;;;0.20;0.10;;;;;;;;;;5062223;28;20044;-90
2022/11/10 03:13:58;;;;;;;0.20;0.10;;;;;;;;;;5062558;28;20040;-90
2022/11/10 03:16:32;;;;;;;0.20;0.10;;;;;;;;;;5046000;28;20044;-85
2022/11/10 03:18:58;;;;;;;0.20;0.15;;;;;;;;;;5041677;28;20048;-89
2022/11/10 03:21:24;;;;;;;0.20;0.10;;;;;;;;;;5060815;28;20509;-89
2022/11/10 03:23:51;;;;;;;0.20;0.10;;;;;;;;;;5077407;28;20044;-88
2022/11/10 03:26:27;;;;;;;;;;;;;;;;;;;;;
2022/11/10 03:29:05;;;;;;;0.20;0.10;;;;;;;;;;5076715;28;20569;-86
2022/11/10 03:31:42;;;;;;;0.20;0.10;;;;;;;;;;5073815;28;20035;-85
2022/11/10 03:34:18;;;;;;;;;;;;;;;;;;;;;
2022/11/10 03:36:44;;;;;;;0.20;0.10;;;;;;;;;;5095440;22;20051;-82
2022/11/10 03:39:10;;;;;;;0.20;0.00;;;;;;;;;;5059659;28;20032;-84
2022/11/10 03:41:36;;;;;;;0.20;0.10;;;;;;;;;;5057284;28;20079;-84
2022/11/10 03:44:02;;;;;;;0.20;0.10;;;;;;;;;;5045682;28;20036;-80
2022/11/10 03:46:28;;;;;;;0.20;0.10;;;;;;;;;;5066536;28;20071;-83
2022/11/10 03:48:54;;;;;;;0.20;0.10;;;;;;;;;;5040770;28;20098;-82
2022/11/10 03:51:21;;;;;;;0.20;0.10;;;;;;;;;;5038749;28;20041;-84
2022/11/10 03:53:47;;;;;;;0.20;0.10;;;;;;;;;;5059824;28;20066;-81
2022/11/10 03:56:13;;;;;;;0.20;0.10;;;;;;;;;;5040716;28;20120;-83
2022/11/10 03:58:39;;;;;;;0.20;0.10;;;;;;;;;;5038377;28;20102;-83
2022/11/10 04:01:06;;;;;;;0.20;0.10;;;;;;;;;;5059502;28;20063;-82
2022/11/10 04:03:32;;;;;;;0.25;0.15;;;;;;;;;;5044044;28;20032;-84
2022/11/10 04:09:01;;;;;;;0.20;0.10;;;;;;;;;;5055724;28;20135;-84
2022/11/10 04:17:01;;;;;;;0.20;0.00;;;;;;;;;;5050934;28;20045;-83
2022/11/10 04:19:27;;;;;;;0.20;0.10;;;;;;;;;;5038198;28;20048;-82
2022/11/10 04:21:53;;;;;;;0.20;0.10;;;;;;;;;;5052868;28;20032;-82
2022/11/10 04:24:20;;;;;;;0.20;0.10;;;;;;;;;;5036171;28;20103;-83
2022/11/10 04:26:47;;;;;;;0.20;0.10;;;;;;;;;;5034458;28;20045;-83
2022/11/10 04:29:14;;;;;;;0.20;0.10;;;;;;;;;;5033378;28;20064;-83
2022/11/10 04:31:40;;;;;;;0.20;0.10;;;;;;;;;;5051532;28;20102;-82
2022/11/10 04:34:07;;;;;;;0.20;0.10;;;;;;;;;;5033911;28;20041;-83
2022/11/10 04:36:34;;;;;;;0.20;0.10;;;;;;;;;;5039139;28;20040;-84
2022/11/10 04:39:00;;;;;;;0.20;0.10;;;;;;;;;;5049425;28;20045;-82
2022/11/10 04:41:29;;;;;;;0.20;0.10;;;;;;;;;;5057726;28;20033;-82
2022/11/10 04:43:55;;;;;;;0.20;0.10;;;;;;;;;;5044829;28;20125;-83
2022/11/10 04:46:25;;;;;;;0.20;0.10;;;;;;;;;;5040576;28;20037;-83
2022/11/10 04:48:52;;;;;;;1.00;0.38;;;;;;;;;;5041918;28;20041;-84
2022/11/10 04:51:19;;;;;;;0.20;0.10;;;;;;;;;;5041647;28;20037;-81
2022/11/10 04:53:45;;;;;;;0.20;0.10;;;;;;;;;;5061821;28;20040;-82
2022/11/10 04:56:18;;;;;;;0.20;0.10;;;;;;;;;;5030209;28;20036;-83
2022/11/10 04:58:44;;;;;;;0.20;0.10;;;;;;;;;;5036647;28;20171;-82
2022/11/10 05:01:15;;;;;;;0.20;0.10;;;;;;;;;;5058920;28;20050;-82
2022/11/10 05:03:42;;;;;;;0.20;0.10;;;;;;;;;;5049245;28;20029;-82
2022/11/10 05:06:08;;;;;;;0.30;0.30;;;;;;;;;;5045122;28;20097;-82
2022/11/10 05:08:35;;;;;;;0.20;0.10;;;;;;;;;;5060680;28;20190;-81
2022/11/10 05:11:01;;;;;;;0.20;0.10;;;;;;;;;;5055442;28;20048;-83
2022/11/10 05:13:27;;;;;;;0.22;0.20;;;;;;;;;;5052502;28;20151;-81
2022/11/10 05:15:53;;;;;;;0.30;0.20;;;;;;;;;;5036844;28;20083;-82
2022/11/10 05:18:19;;;;;;;0.85;0.85;;;;;;;;;;5035929;28;20045;-81
2022/11/10 05:20:46;;;;;;;0.20;0.10;;;;;;;;;;5046510;28;20494;-78
2022/11/10 05:25:56;;;;;;;0.20;0.10;;;;;;;;;;5043635;28;20053;-84
2022/11/10 05:28:22;;;;;;;0.20;0.10;;;;;;;;;;5020946;28;21247;-84
2022/11/10 05:30:48;;;;;;;0.20;0.10;;;;;;;;;;5040415;28;20029;-86
2022/11/10 05:33:14;;;;;;;0.20;0.10;;;;;;;;;;5019884;28;20060;-83
2022/11/10 05:35:40;;;;;;;0.20;0.10;;;;;;;;;;5037013;28;20043;-85
2022/11/10 05:38:07;;;;;;;0.20;0.10;;;;;;;;;;5051188;28;20040;-85
2022/11/10 05:40:33;;;;;;;0.20;0.10;;;;;;;;;;5049152;28;20047;-81
2022/11/10 05:42:59;;;;;;;0.20;0.10;;;;;;;;;;5054544;28;20422;-83
2022/11/10 05:45:26;;;;;;;0.20;0.10;;;;;;;;;;5054386;28;20040;-83
2022/11/10 05:47:53;;;;;;;0.20;0.10;;;;;;;;;;5024053;28;20518;-83
2022/11/10 05:50:20;;;;;;;0.20;0.10;;;;;;;;;;5056347;28;20041;-85
2022/11/10 05:52:47;;;;;;;0.20;0.10;;;;;;;;;;5035275;28;20045;-84
2022/11/10 05:55:13;;;;;;;0.20;0.10;;;;;;;;;;5052205;28;20032;-84
2022/11/10 05:57:46;;;;;;;0.20;0.08;;;;;;;;;;5034448;28;20040;-85
2022/11/10 06:00:12;;;;;;;;;;;;;;;;;;5032432;28;20131;-83
2022/11/10 06:02:38;;;;;;;0.20;0.10;;;;;;;;;;5050627;28;20450;-83
2022/11/10 06:05:04;;;;;;;0.20;0.10;;;;;;;;;;5035485;28;20141;-83
2022/11/10 06:07:30;;;;;;;0.40;0.10;;;;;;;;;;5034868;28;20040;-84
2022/11/10 06:09:56;;;;;;;0.20;0.10;;;;;;;;;;5024684;28;20072;-84
2022/11/10 06:12:23;;;;;;;0.65;0.22;;;;;;;;;;5024863;28;20295;-82
2022/11/10 06:14:53;;;;;;;0.20;0.10;;;;;;;;;;5053791;28;20045;-86
2022/11/10 06:17:19;;;;;;;0.20;0.10;;;;;;;;;;5024260;28;20040;-85
2022/11/10 06:19:46;;;;;;;0.20;0.10;;;;;;;;;;5025593;28;20124;-85
2022/11/10 06:22:12;;;;;;;0.30;0.17;;;;;;;;;;5058412;28;20105;-82
2022/11/10 06:24:38;;;;;;;0.20;0.10;;;;;;;;;;5052846;28;20048;-83
2022/11/10 06:27:04;;;;;;;0.20;0.10;;;;;;;;;;5039635;28;20503;-85
2022/11/10 06:29:30;;;;;;;0.20;0.10;;;;;;;;;;5025967;28;20447;-85
2022/11/10 06:31:56;;;;;;;0.20;0.10;;;;;;;;;;5020893;28;20055;-84
2022/11/10 06:34:23;;;;;;;0.20;0.10;;;;;;;;;;5041714;28;20499;-84
2022/11/10 06:36:49;;;;;;;0.20;0.10;;;;;;;;;;5040564;28;20071;-82
2022/11/10 06:39:15;;;;;;;0.20;0.15;;;;;;;;;;5027911;28;20448;-83
2022/11/10 06:41:41;;;;;;;0.20;0.10;;;;;;;;;;5040227;28;20406;-85
2022/11/10 06:44:07;;;;;;;0.20;0.10;;;;;;;;;;5031485;28;20105;-85
2022/11/10 06:46:33;;;;;;;0.20;0.10;;;;;;;;;;5030704;28;20041;-84
2022/11/10 06:49:00;;;;;;;0.20;0.20;;;;;;;;;;5024196;28;20049;-84
2022/11/10 06:51:26;;;;;;;0.20;0.10;;;;;;;;;;5024875;28;20045;-85
2022/11/10 06:53:52;;;;;;;0.20;0.10;;;;;;;;;;5027767;28;20074;-85
2022/11/10 06:56:20;;;;;;;0.20;0.10;;;;;;;;;;5043880;28;20052;-85
2022/11/10 06:58:46;;;;;;;0.20;0.10;;;;;;;;;;5055237;28;20051;-86
2022/11/10 07:01:12;;;;;;;0.20;0.10;;;;;;;;;;5022420;28;20132;-86
2022/11/10 07:03:39;;;;;;;0.20;0.10;;;;;;;;;;5054075;28;20044;-87
2022/11/10 07:06:06;;;;;;;0.20;0.10;;;;;;;;;;5038878;28;20041;-84
2022/11/10 07:08:32;;;;;;;0.20;0.10;;;;;;;;;;5024918;28;20044;-83
2022/11/10 07:10:58;;;;;;;0.20;0.03;;;;;;;;;;5055534;28;20441;-83
2022/11/10 07:13:24;;;;;;;0.20;0.10;;;;;;;;;;5054935;28;20553;-84
2022/11/10 07:15:51;;;;;;;0.20;0.03;;;;;;;;;;5020514;28;20079;-87
2022/11/10 07:18:17;;;;;;;0.43;0.20;;;;;;;;;;5057088;28;20072;-85
2022/11/10 07:20:45;;;;;;;0.57;0.52;;;;;;;;;;5058189;28;20044;-83
2022/11/10 07:23:11;;;;;;;0.20;0.10;;;;;;;;;;5043442;28;20028;-84
2022/11/10 07:25:38;;;;;;;0.20;0.10;;;;;;;;;;5053497;28;20051;-84
2022/11/10 07:28:05;;;;;;;0.20;0.10;;;;;;;;;;5042143;28;20044;-83
2022/11/10 07:30:32;;;;;;;0.20;0.00;;;;;;;;;;5043278;28;20036;-84
2022/11/10 07:33:04;;;;;;;0.20;0.10;;;;;;;;;;5049384;28;20104;-87
2022/11/10 07:35:31;;;;;;;0.30;0.25;;;;;;;;;;5034205;28;20526;-85
2022/11/10 07:37:58;;;;;;;0.20;0.10;;;;;;;;;;5027529;28;20044;-86
2022/11/10 07:40:24;;;;;;;0.20;0.10;;;;;;;;;;5032798;28;20040;-83
2022/11/10 07:42:50;;;;;;;0.20;0.10;;;;;;;;;;5053403;28;20521;-84
2022/11/10 07:45:16;;;;;;;0.20;0.10;;;;;;;;;;5035013;28;20570;-84
2022/11/10 07:47:42;;;;;;;0.30;0.30;;;;;;;;;;5024871;28;20501;-86
2022/11/10 07:50:08;;;;;;;0.20;0.10;;;;;;;;;;5041016;28;20394;-84
2022/11/10 07:52:34;;;;;;;0.20;0.10;;;;;;;;;;5026163;28;20048;-83
2022/11/10 07:55:00;;;;;;;0.20;0.10;;;;;;;;;;5036552;28;20060;-85
2022/11/10 07:57:26;;;;;;;0.20;0.10;;;;;;;;;;5059370;28;20514;-84
2022/11/10 07:59:53;;;;;;;0.20;0.10;;;;;;;;;;5042626;28;20040;-84
2022/11/10 08:02:19;;;;;;;0.20;0.10;;;;;;;;;;5023982;28;20119;-84
2022/11/10 08:04:45;;;;;;;0.63;0.57;;;;;;;;;;5038088;28;20045;-84
2022/11/10 08:07:13;;;;;;;0.20;0.10;;;;;;;;;;5036972;28;20036;-86
2022/11/10 08:09:42;;;;;;;0.20;0.10;;;;;;;;;;5046581;28;20406;-85
2022/11/10 08:12:08;;;;;;;0.20;0.10;;;;;;;;;;5042174;28;20043;-86
2022/11/10 08:14:34;;;;;;;0.20;0.10;;;;;;;;;;5025413;28;20506;-83
2022/11/10 08:17:00;;;;;;;0.20;0.10;;;;;;;;;;5026673;28;20120;-86
2022/11/10 08:19:26;;;;;;;0.20;0.10;;;;;;;;;;5054699;28;20045;-83
2022/11/10 08:21:52;;;;;;;0.20;0.03;;;;;;;;;;5042988;28;20640;-81
2022/11/10 08:24:18;;;;;;;0.30;0.20;;;;;;;;;;5060497;28;20412;-84
2022/11/10 08:26:44;;;;;;;0.20;0.10;;;;;;;;;;5057068;28;20040;-82
2022/11/10 08:29:11;;;;;;;0.20;0.10;;;;;;;;;;5056592;28;20033;-84
2022/11/10 08:31:37;;;;;;;0.20;0.17;;;;;;;;;;5021872;28;20032;-85
2022/11/10 08:34:04;;;;;;;0.20;0.00;;;;;;;;;;5061478;28;20060;-83
2022/11/10 08:36:30;;;;;;;0.40;0.40;;;;;;;;;;5040709;28;20044;-83
2022/11/10 08:38:56;;;;;;;0.20;0.10;;;;;;;;;;5037696;28;20251;-87
2022/11/10 08:41:22;;;;;;;0.40;0.40;;;;;;;;;;5022937;28;20074;-83
2022/11/10 08:43:48;;;;;;;0.20;0.20;;;;;;;;;;5022515;28;20047;-84
2022/11/10 08:46:15;;;;;;;0.20;0.10;;;;;;;;;;5022316;28;20433;-86
2022/11/10 08:48:41;;;;;;;0.30;0.15;;;;;;;;;;5038882;28;20060;-83
2022/11/10 08:51:07;;;;;;;0.20;0.10;;;;;;;;;;5042411;28;20093;-84
2022/11/10 08:53:33;;;;;;;0.20;0.10;;;;;;;;;;5037050;28;20045;-82
2022/11/10 08:55:59;;;;;;;0.20;0.20;;;;;;;;;;5050789;28;20190;-82
2022/11/10 08:58:25;;;;;;;0.20;0.10;;;;;;;;;;5043221;28;20069;-87
2022/11/10 09:00:51;;;;;;;0.20;0.10;;;;;;;;;;5043082;28;20094;-84
2022/11/10 09:03:18;;;;;;;0.20;0.10;;;;;;;;;;5053615;28;20043;-81
2022/11/10 09:05:44;;;;;;;0.20;0.10;;;;;;;;;;5038757;28;20052;-84
2022/11/10 09:08:11;;;;;;;0.20;0.10;;;;;;;;;;5053816;28;20490;-82
2022/11/10 09:10:38;;;;;;;0.20;0.10;;;;;;;;;;5055732;28;20043;-81
2022/11/10 09:13:05;;;;;;;0.20;0.10;;;;;;;;;;5035159;28;20036;-83
2022/11/10 09:15:31;;;;;;;0.20;0.10;;;;;;;;;;5041101;28;20132;-84
2022/11/10 09:18:01;;;;;;;0.20;0.20;;;;;;;;;;5042470;28;20490;-84
2022/11/10 09:20:27;;;;;;;0.20;0.10;;;;;;;;;;5037871;28;20040;-82
2022/11/10 09:22:54;;;;;;;0.50;0.30;;;;;;;;;;5055975;28;20072;-82
2022/11/10 09:25:20;;;;;;;0.20;0.10;;;;;;;;;;5039659;28;20033;-80
2022/11/10 09:27:46;;;;;;;0.47;0.30;;;;;;;;;;5053724;28;20058;-87
2022/11/10 09:30:12;;;;;;;0.30;0.30;;;;;;;;;;5028525;28;20083;-81
2022/11/10 09:32:38;;;;;;;0.20;0.10;;;;;;;;;;5057436;28;20505;-82
2022/11/10 09:35:05;;;;;;;0.20;0.15;;;;;;;;;;5053477;28;20131;-84
2022/11/10 09:37:38;;;;;;;0.20;0.10;;;;;;;;;;5081340;22;20069;-84
2022/11/10 09:40:11;;;;;;;0.70;0.52;;;;;;;;;;5076752;28;20044;-80
2022/11/10 09:42:39;;;;;;;0.45;0.15;;;;;;;;;;5079122;28;20063;-83
2022/11/10 09:45:24;;;;;;;0.77;0.40;;;;;;;;;;5080677;27;20518;-86
2022/11/10 09:48:06;;;;;;;0.20;0.10;;;;;;;;;;5073174;28;20040;-83
2022/11/10 09:50:32;;;;;;;0.65;0.17;;;;;;;;;;5062835;28;20575;-85
2022/11/10 09:52:59;;;;;;;0.20;0.20;;;;;;;;;;5063384;28;20428;-81
2022/11/10 09:55:44;;;;;;;0.20;0.10;;;;;;;;;;5046892;28;20072;-87
2022/11/10 09:58:11;;;;;;;0.20;0.10;;;;;;;;;;5073539;28;20051;-83
2022/11/10 10:00:44;;;;;;;0.20;0.20;;;;;;;;;;5060598;28;20132;-80
2022/11/10 10:03:14;;;;;;;0.20;0.10;;;;;;;;;;5073699;28;20044;-83
2022/11/10 10:05:52;;;;;;;0.20;0.00;;;;;;;;;;5062067;28;20848;-83
2022/11/10 10:08:37;;;;;;;0.22;0.05;;;;;;;;;;5058946;28;20048;-84
2022/11/10 10:11:09;;;;;;;0.20;0.03;;;;;;;;;;5074161;28;20166;-85
2022/11/10 10:13:54;;;;;;;0.20;0.10;;;;;;;;;;5072688;28;20097;-85
2022/11/10 10:16:26;;;;;;;0.20;0.10;;;;;;;;;;5090203;27;20075;-84
2022/11/10 10:19:14;;;;;;;0.65;0.32;;;;;;;;;;5063646;28;20391;-88
2022/11/10 10:21:58;;;;;;;0.20;0.10;;;;;;;;;;5074695;28;20051;-86
2022/11/10 10:24:26;;;;;;;0.20;0.10;;;;;;;;;;5064166;28;20040;-86
2022/11/10 10:26:57;;;;;;;0.20;0.10;;;;;;;;;;5065392;28;20082;-85
2022/11/10 10:29:35;;;;;;;0.20;0.10;;;;;;;;;;5069539;28;20051;-85
2022/11/10 10:32:01;;;;;;;2.45;0.45;;;;;;;;;;5069091;28;20096;-82
2022/11/10 10:34:30;;;;;;;0.20;0.08;;;;;;;;;;5058077;28;20555;-86
2022/11/10 10:36:56;;;;;;;0.20;0.10;;;;;;;;;;5065434;28;20522;-83
2022/11/10 10:39:43;;;;;;;0.20;0.10;;;;;;;;;;5061970;28;20055;-85
2022/11/10 10:42:21;;;;;;;0.20;0.10;;;;;;;;;;5064528;28;20123;-84
2022/11/10 10:45:06;;;;;;;1.67;0.63;;;;;;;;;;5060868;28;20039;-82
2022/11/10 10:47:37;;;;;;;0.40;0.40;;;;;;;;;;5077800;28;20031;-85
2022/11/10 10:50:21;;;;;;;0.20;0.10;;;;;;;;;;5060478;28;20043;-84
2022/11/10 10:53:07;;;;;;;0.20;0.10;;;;;;;;;;5059043;28;20498;-83
2022/11/10 10:55:34;;;;;;;0.20;0.10;;;;;;;;;;5073874;28;20150;-83
2022/11/10 10:58:02;;;;;;;0.20;0.10;;;;;;;;;;5057068;28;20087;-87
2022/11/10 11:00:28;;;;;;;0.20;0.20;;;;;;;;;;5058993;28;20045;-86
2022/11/10 11:03:05;;;;;;;0.20;0.10;;;;;;;;;;5060426;28;20041;-84
2022/11/10 11:05:32;;;;;;;0.20;0.13;;;;;;;;;;5078479;28;20663;-82
2022/11/10 11:08:04;;;;;;;0.20;0.13;;;;;;;;;;5074585;28;20039;-88
2022/11/10 11:10:32;;;;;;;0.20;0.10;;;;;;;;;;5073042;28;20036;-83
2022/11/10 11:13:13;;;;;;;0.20;0.10;;;;;;;;;;5073461;28;20587;-85
2022/11/10 11:15:55;;;;;;;0.20;0.10;;;;;;;;;;5074222;28;20098;-89
2022/11/10 11:18:24;;;;;;;0.20;0.10;;;;;;;;;;5076279;28;20044;-87
2022/11/10 11:21:08;;;;;;;0.20;0.10;;;;;;;;;;5058171;28;20513;-83
2022/11/10 11:23:38;;;;;;;0.20;0.10;;;;;;;;;;5063852;28;20047;-86
2022/11/10 11:26:09;;;;;;;0.20;0.10;;;;;;;;;;5058086;28;20029;-83
2022/11/10 11:28:46;;;;;;;0.20;0.10;;;;;;;;;;5074968;28;20045;-86
2022/11/10 11:31:25;;;;;;;0.20;0.10;;;;;;;;;;5060355;28;20043;-83
2022/11/10 11:34:04;;;;;;;0.20;0.05;;;;;;;;;;5058610;28;20036;-86
2022/11/10 11:36:50;;;;;;;0.20;0.10;;;;;;;;;;5069909;28;20101;-83
2022/11/10 11:39:31;;;;;;;0.20;0.10;;;;;;;;;;5075821;28;20066;-84
2022/11/10 11:42:16;;;;;;;0.20;0.10;;;;;;;;;;5058998;28;20577;-84
2022/11/10 11:45:17;;;;;;;0.40;0.30;;;;;;;;;;5072430;28;20137;-84
2022/11/10 11:48:02;;;;;;;0.20;0.10;;;;;;;;;;5041426;28;20037;-84
2022/11/10 11:50:49;;;;;;;0.20;0.10;;;;;;;;;;5069626;28;20048;-81
2022/11/10 11:53:15;;;;;;;0.20;0.10;;;;;;;;;;5072395;28;20590;-83
2022/11/10 11:55:55;;;;;;;0.20;0.10;;;;;;;;;;5055802;28;20051;-86
2022/11/10 11:58:24;;;;;;;0.20;0.10;;;;;;;;;;5070480;28;20162;-85
2022/11/10 12:01:09;;;;;;;0.20;0.20;;;;;;;;;;5069150;28;20035;-87
2022/11/10 12:03:35;;;;;;;0.20;0.10;;;;;;;;;;5068689;28;20288;-83
2022/11/10 12:06:07;;;;;;;0.20;0.10;;;;;;;;;;5060262;28;20040;-85
2022/11/10 12:08:47;;;;;;;0.20;0.10;;;;;;;;;;5072806;28;20093;-82
2022/11/10 12:11:15;;;;;;;0.20;0.10;;;;;;;;;;5070597;28;20072;-82
2022/11/10 12:13:51;;;;;;;0.20;0.10;;;;;;;;;;5073732;28;20051;-82
2022/11/10 12:16:17;;;;;;;0.20;0.10;;;;;;;;;;5069423;28;20032;-82
2022/11/10 12:18:50;;;;;;;0.50;0.20;;;;;;;;;;5075754;28;20410;-84
2022/11/10 12:21:24;;;;;;;0.20;0.10;;;;;;;;;;5069647;28;20040;-84
2022/11/10 12:24:19;;;;;;;0.20;0.10;;;;;;;;;;5061340;28;20032;-83
2022/11/10 12:26:55;;;;;;;0.20;0.10;;;;;;;;;;5074176;28;20040;-86
2022/11/10 12:29:26;;;;;;;0.20;0.10;;;;;;;;;;5058824;28;20214;-84
2022/11/10 12:31:55;;;;;;;0.20;0.10;;;;;;;;;;5055847;28;20055;-83
2022/11/10 12:34:37;;;;;;;0.20;0.10;;;;;;;;;;5073732;28;20044;-83
2022/11/10 12:37:06;;;;;;;0.20;0.10;;;;;;;;;;5071477;28;20044;-83
2022/11/10 12:39:37;;;;;;;0.20;0.10;;;;;;;;;;5066365;28;20043;-85
2022/11/10 12:42:05;;;;;;;0.20;0.10;;;;;;;;;;5076225;28;20052;-82
2022/11/10 12:44:38;;;;;;;0.20;0.10;;;;;;;;;;5073375;28;20044;-85
2022/11/10 12:47:06;;;;;;;0.20;0.10;;;;;;;;;;5071932;28;20036;-83
2022/11/10 12:49:37;;;;;;;0.35;0.22;;;;;;;;;;5072453;28;20113;-86
2022/11/10 12:52:03;;;;;;;0.20;0.10;;;;;;;;;;5057481;28;20101;-85
2022/11/10 12:54:32;;;;;;;0.20;0.10;;;;;;;;;;5073983;28;20040;-84
2022/11/10 12:57:19;;;;;;;0.20;0.10;;;;;;;;;;5074404;28;20036;-84
2022/11/10 13:00:06;;;;;;;0.20;0.10;;;;;;;;;;5062910;28;20093;-83
2022/11/10 13:02:34;;;;;;;0.20;0.10;;;;;;;;;;5062846;28;20079;-86
2022/11/10 13:05:16;;;;;;;0.95;0.65;;;;;;;;;;5078666;28;20040;-85
2022/11/10 13:07:43;;;;;;;0.20;0.10;;;;;;;;;;5081580;28;20063;-81
2022/11/10 13:10:19;;;;;;;0.20;0.17;;;;;;;;;;5076281;28;20032;-87
2022/11/10 13:13:04;;;;;;;0.22;0.15;;;;;;;;;;5075368;28;20044;-85
2022/11/10 13:15:39;;;;;;;0.20;0.10;;;;;;;;;;5063742;28;20051;-88
2022/11/10 13:18:08;;;;;;;0.20;0.10;;;;;;;;;;5064723;28;20043;-84
2022/11/10 13:21:00;;;;;;;0.20;0.10;;;;;;;;;;5063031;28;20036;-86
2022/11/10 13:24:01;;;;;;;0.20;0.10;;;;;;;;;;5075042;28;20498;-84
2022/11/10 13:26:54;;;;;;;0.20;0.10;;;;;;;;;;5074767;28;20120;-87
2022/11/10 13:29:55;;;;;;;0.20;0.10;;;;;;;;;;4991651;28;20057;-86
2022/11/10 13:32:27;;;;;;;0.20;0.20;;;;;;;;;;5058580;28;20636;-86
2022/11/10 13:35:08;;;;;;;0.20;0.10;;;;;;;;;;5060774;28;20526;-88
2022/11/10 13:37:53;;;;;;;0.20;0.10;;;;;;;;;;5081226;28;20161;-85
2022/11/10 13:40:25;;;;;;;0.25;0.20;;;;;;;;;;5062252;28;20474;-85
2022/11/10 13:42:58;;;;;;;0.20;0.10;;;;;;;;;;5061879;28;20032;-87
2022/11/10 13:45:28;;;;;;;0.20;0.00;;;;;;;;;;5060622;28;20788;-82
2022/11/10 13:47:59;;;;;;;0.20;0.10;;;;;;;;;;5077018;28;20033;-84
2022/11/10 13:50:28;;;;;;;0.20;0.10;;;;;;;;;;5062177;28;20119;-86
2022/11/10 13:53:16;;;;;;;0.20;0.10;;;;;;;;;;5062857;28;20036;-86
2022/11/10 13:56:01;;;;;;;0.20;0.10;;;;;;;;;;5074321;28;20047;-87
2022/11/10 13:58:29;;;;;;;0.20;0.00;;;;;;;;;;5077874;28;20081;-83
2022/11/10 14:01:14;;;;;;;0.20;0.10;;;;;;;;;;5064834;28;20036;-90
2022/11/10 14:04:09;;;;;;;0.20;0.10;;;;;;;;;;5057846;28;20038;-84
2022/11/10 14:07:17;;;;;;;0.20;0.10;;;;;;;;;;5057201;28;20131;-88
2022/11/10 14:10:07;;;;;;;0.20;0.10;;;;;;;;;;5073648;28;20044;-88
2022/11/10 14:13:04;;;;;;;0.20;0.10;;;;;;;;;;5064645;28;20403;-83
2022/11/10 14:15:47;;;;;;;0.20;0.10;;;;;;;;;;5075895;28;20159;-89
2022/11/10 14:18:55;;;;;;;0.43;0.43;;;;;;;;;;5078169;28;20074;-82
2022/11/10 14:21:30;;;;;;;0.20;0.10;;;;;;;;;;5079310;28;20142;-83
2022/11/10 14:24:17;;;;;;;0.20;0.20;;;;;;;;;;5076846;28;20033;-84
2022/11/10 14:27:00;;;;;;;0.20;0.10;;;;;;;;;;5065689;28;20040;-81
2022/11/10 14:30:07;;;;;;;0.20;0.20;;;;;;;;;;5068264;28;20822;-84
2022/11/10 14:32:35;;;;;;;1.27;0.20;;;;;;;;;;5065533;28;20072;-80
2022/11/10 14:35:03;;;;;;;0.20;0.10;;;;;;;;;;5078710;28;20051;-82
2022/11/10 14:37:33;;;;;;;0.20;0.10;;;;;;;;;;5058081;28;20083;-81
2022/11/10 14:40:01;;;;;;;0.20;0.10;;;;;;;;;;5076031;28;20048;-82
2022/11/10 14:42:29;;;;;;;0.20;0.10;;;;;;;;;;5075889;28;20502;-84
2022/11/10 14:45:05;;;;;;;0.20;0.10;;;;;;;;;;5056601;28;20612;-84
2022/11/10 14:47:31;;;;;;;0.20;0.10;;;;;;;;;;5058149;28;20033;-86
2022/11/10 14:50:13;;;;;;;0.20;0.00;;;;;;;;;;5080766;28;20044;-81
2022/11/10 14:52:40;;;;;;;0.20;0.10;;;;;;;;;;5076421;28;20044;-82
2022/11/10 14:55:13;;;;;;;0.20;0.10;;;;;;;;;;5075652;28;20040;-83
2022/11/10 14:57:39;;;;;;;0.20;0.10;;;;;;;;;;5080101;28;20040;-84
2022/11/10 15:00:06;;;;;;;0.20;0.10;;;;;;;;;;5059535;28;20694;-85
2022/11/10 15:02:32;;;;;;;0.20;0.10;;;;;;;;;;5056518;28;20139;-84
2022/11/10 15:05:02;;;;;;;0.20;0.10;;;;;;;;;;5046463;28;20066;-86
2022/11/10 15:07:29;;;;;;;0.20;0.10;;;;;;;;;;5042521;28;20380;-84
2022/11/10 15:10:14;;;;;;;0.20;0.10;;;;;;;;;;5074282;28;20047;-80
2022/11/10 15:12:40;;;;;;;0.20;0.20;;;;;;;;;;5079300;28;20051;-84
2022/11/10 15:15:35;;;;;;;0.20;0.20;;;;;;;;;;5039914;28;20032;-86
2022/11/10 15:18:01;;;;;;;0.20;0.10;;;;;;;;;;5065653;28;20634;-84
2022/11/10 15:20:27;;;;;;;0.20;0.10;;;;;;;;;;5038870;28;20063;-84
2022/11/10 15:22:55;;;;;;;2.08;1.27;;;;;;;;;;5060029;28;20101;-84
2022/11/10 15:25:23;;;;;;;0.20;0.10;;;;;;;;;;5057516;28;20119;-84
2022/11/10 15:28:00;;;;;;;0.25;0.15;;;;;;;;;;5073328;28;20039;-84
2022/11/10 15:30:29;;;;;;;0.20;0.10;;;;;;;;;;5065188;28;20461;-86
2022/11/10 15:32:56;;;;;;;0.20;0.10;;;;;;;;;;5040437;28;20040;-82
2022/11/10 15:35:22;;;;;;;0.20;0.10;;;;;;;;;;5055212;28;20517;-84